createdAt,value
2022-09-12T00:01:16.001Z,26.80
2022-09-12T00:03:46.380Z,31.52
2022-09-12T00:06:23.223Z,30.95
2022-09-12T00:08:58.606Z,30.50
2022-09-12T00:11:29.478Z,30.98
2022-09-12T00:14:02.984Z,34.92
2022-09-12T00:16:36.322Z,37.75
2022-09-12T00:19:09.029Z,34.80
2022-09-12T00:21:40.879Z,26.50
2022-09-12T00:24:13.137Z,33.78
2022-09-12T00:26:43.451Z,32.85
2022-09-12T00:29:19.695Z,39.33
2022-09-12T00:31:50.457Z,35.17
2022-09-12T00:34:20.837Z,36.17
2022-09-12T00:36:51.176Z,39.75
2022-09-12T00:39:21.927Z,30.77
2022-09-12T00:41:52.229Z,39.75
2022-09-12T00:44:45.155Z,36.85
2022-09-12T00:47:31.774Z,42.65
2022-09-12T00:50:15.524Z,43.88
2022-09-12T00:52:53.315Z,48.90
2022-09-12T00:55:29.891Z,52.63
2022-09-12T00:58:13.391Z,45.50
2022-09-12T01:00:44.529Z,45.67
2022-09-12T01:03:17.671Z,41.25
2022-09-12T01:05:59.802Z,43.70
2022-09-12T01:08:31.160Z,39.58
2022-09-12T01:11:01.794Z,38.60
2022-09-12T01:13:33.319Z,41.90
2022-09-12T01:16:06.062Z,50.95
2022-09-12T01:19:14.785Z,33.08
2022-09-12T01:22:15.340Z,66.13
2022-09-12T01:25:24.875Z,62.50
2022-09-12T01:28:29.039Z,48.45
2022-09-12T01:31:39.479Z,39.95
2022-09-12T01:34:31.217Z,37.83
2022-09-12T01:37:27.154Z,52.25
2022-09-12T01:40:14.169Z,42.83
2022-09-12T01:42:56.837Z,40.25
2022-09-12T01:45:36.556Z,51.10
2022-09-12T01:48:22.556Z,43.95
2022-09-12T01:51:05.782Z,42.15
2022-09-12T01:53:44.431Z,39.95
2022-09-12T01:56:24.887Z,48.53
2022-09-12T01:59:19.608Z,50.00
2022-09-12T02:01:58.350Z,46.53
2022-09-12T02:04:34.749Z,43.03
2022-09-12T02:07:17.095Z,49.10
2022-09-12T02:10:02.085Z,50.22
2022-09-12T02:12:40.769Z,57.30
2022-09-12T02:15:14.234Z,51.67
2022-09-12T02:17:47.682Z,49.45
2022-09-12T02:20:48.622Z,60.97
2022-09-12T02:23:25.926Z,48.78
2022-09-12T02:26:00.361Z,55.08
2022-09-12T02:28:36.726Z,48.40
2022-09-12T02:31:41.162Z,37.50
2022-09-12T02:34:33.161Z,34.75
2022-09-12T02:37:31.521Z,35.92
2022-09-12T02:40:02.951Z,56.72
2022-09-12T02:42:33.382Z,37.42
2022-09-12T02:45:05.323Z,25.55
2022-09-12T02:47:57.514Z,38.53
2022-09-12T02:50:28.772Z,36.92
2022-09-12T02:53:05.910Z,35.80
2022-09-12T02:55:37.889Z,38.58
2022-09-12T02:58:13.664Z,48.25
2022-09-12T03:01:02.843Z,36.28
2022-09-12T03:04:01.111Z,45.10
2022-09-12T03:06:51.979Z,36.33
2022-09-12T03:09:37.173Z,44.47
2022-09-12T03:12:46.318Z,42.85
2022-09-12T03:15:37.999Z,37.75
2022-09-12T03:18:24.250Z,36.80
2022-09-12T03:21:07.767Z,40.63
2022-09-12T03:24:02.000Z,27.80
2022-09-12T03:26:59.856Z,40.85
2022-09-12T03:29:32.080Z,45.33
2022-09-12T03:32:02.802Z,45.08
2022-09-12T03:34:33.293Z,54.25
2022-09-12T03:37:03.662Z,38.70
2022-09-12T03:39:34.109Z,40.03
2022-09-12T03:42:04.576Z,30.52
2022-09-12T03:44:34.914Z,33.58
2022-09-12T03:47:08.099Z,34.08
2022-09-12T03:49:41.565Z,29.75
2022-09-12T03:52:11.930Z,37.88
2022-09-12T03:54:42.634Z,47.35
2022-09-12T03:57:13.235Z,31.75
2022-09-12T03:59:43.854Z,35.80
2022-09-12T04:02:15.674Z,42.45
2022-09-12T04:04:46.849Z,40.70
2022-09-12T04:07:18.500Z,38.75
2022-09-12T04:09:52.750Z,39.53
2022-09-12T04:12:24.013Z,46.40
2022-09-12T04:14:55.932Z,37.85
2022-09-12T04:17:26.748Z,45.90
2022-09-12T04:19:57.927Z,47.22
2022-09-12T04:22:29.593Z,54.95
2022-09-12T04:25:00.433Z,46.75
2022-09-12T04:27:31.358Z,46.05
2022-09-12T04:30:04.813Z,40.75
2022-09-12T04:32:35.946Z,36.65
2022-09-12T04:35:07.246Z,40.00
2022-09-12T04:37:38.615Z,35.65
2022-09-12T04:40:18.248Z,41.30
2022-09-12T04:45:19.030Z,34.63
2022-09-12T04:47:52.697Z,31.30
2022-09-12T04:50:26.693Z,30.85
2022-09-12T04:52:57.660Z,29.08
2022-09-12T04:55:28.720Z,36.33
2022-09-12T04:57:59.327Z,33.42
2022-09-12T05:00:30.293Z,35.13
2022-09-12T05:03:00.795Z,29.50
2022-09-12T05:05:31.412Z,28.73
2022-09-12T05:08:01.798Z,32.33
2022-09-12T05:10:32.371Z,30.98
2022-09-12T05:13:02.595Z,37.08
2022-09-12T05:15:34.081Z,33.13
2022-09-12T05:18:04.604Z,30.70
2022-09-12T05:20:36.795Z,30.90
2022-09-12T05:23:07.258Z,25.63
2022-09-12T05:25:37.657Z,20.27
2022-09-12T05:28:07.999Z,19.20
2022-09-12T05:30:38.514Z,20.23
2022-09-12T05:33:08.848Z,21.38
2022-09-12T05:35:43.222Z,17.88
2022-09-12T05:38:13.610Z,18.83
2022-09-12T05:40:45.070Z,14.73
2022-09-12T05:43:16.141Z,19.23
2022-09-12T05:45:46.811Z,13.77
2022-09-12T05:48:17.398Z,12.05
2022-09-12T05:50:48.422Z,13.27
2022-09-12T05:53:19.416Z,10.23
2022-09-12T05:55:49.867Z,10.95
2022-09-12T05:58:20.312Z,12.40
2022-09-12T06:00:51.903Z,8.73
2022-09-12T06:03:22.270Z,19.05
2022-09-12T06:05:52.690Z,14.38
2022-09-12T06:08:23.062Z,8.77
2022-09-12T06:10:53.673Z,13.75
2022-09-12T06:13:23.966Z,12.68
2022-09-12T06:15:55.776Z,6.95
2022-09-12T06:18:26.147Z,8.57
2022-09-12T06:20:56.667Z,8.98
2022-09-12T06:23:28.977Z,10.38
2022-09-12T06:26:05.321Z,13.73
2022-09-12T06:28:39.109Z,10.98
2022-09-12T06:31:15.147Z,9.30
2022-09-12T06:33:47.935Z,12.38
2022-09-12T06:36:25.068Z,6.90
2022-09-12T06:39:03.906Z,5.32
2022-09-12T06:41:35.415Z,6.63
2022-09-12T06:44:06.419Z,7.55
2022-09-12T06:46:37.210Z,7.35
2022-09-12T06:49:08.670Z,10.57
2022-09-12T06:51:39.230Z,5.88
2022-09-12T06:54:09.675Z,9.20
2022-09-12T06:56:40.147Z,11.13
2022-09-12T06:59:10.724Z,12.43
2022-09-12T07:01:42.323Z,6.35
2022-09-12T07:04:13.676Z,6.70
2022-09-12T07:06:46.753Z,7.10
2022-09-12T07:09:19.132Z,10.75
2022-09-12T07:11:50.183Z,8.25
2022-09-12T07:14:21.219Z,6.10
2022-09-12T07:16:52.047Z,7.57
2022-09-12T07:19:22.455Z,6.45
2022-09-12T07:21:57.950Z,7.18
2022-09-12T07:24:29.012Z,8.52
2022-09-12T07:26:59.856Z,5.78
2022-09-12T07:29:36.878Z,6.40
2022-09-12T07:32:09.758Z,7.40
2022-09-12T07:34:40.217Z,8.90
2022-09-12T07:37:10.785Z,9.15
2022-09-12T07:39:41.170Z,5.28
2022-09-12T07:42:11.643Z,7.28
2022-09-12T07:44:42.053Z,7.03
2022-09-12T07:47:12.432Z,9.15
2022-09-12T07:49:42.775Z,8.40
2022-09-12T07:52:13.190Z,6.05
2022-09-12T07:54:43.614Z,10.35
2022-09-12T07:57:14.058Z,7.38
2022-09-12T07:59:53.247Z,6.82
2022-09-12T08:04:53.985Z,7.10
2022-09-12T08:07:24.485Z,6.95
2022-09-12T08:09:55.562Z,6.50
2022-09-12T08:12:26.033Z,7.72
2022-09-12T08:14:56.889Z,6.97
2022-09-12T08:17:27.530Z,6.97
2022-09-12T08:19:58.687Z,6.20
2022-09-12T08:22:29.094Z,9.52
2022-09-12T08:24:59.447Z,6.30
2022-09-12T08:27:29.885Z,9.90
2022-09-12T08:30:00.238Z,4.50
2022-09-12T08:32:30.690Z,9.18
2022-09-12T08:35:01.265Z,10.00
2022-09-12T08:37:35.132Z,8.95
2022-09-12T08:40:08.876Z,4.55
2022-09-12T08:42:57.090Z,7.03
2022-09-12T08:45:36.067Z,5.57
2022-09-12T08:48:08.702Z,7.53
2022-09-12T08:50:41.449Z,5.82
2022-09-12T08:53:25.314Z,5.43
2022-09-12T08:56:01.261Z,3.72
2022-09-12T08:58:35.041Z,7.60
2022-09-12T09:01:30.350Z,6.55
2022-09-12T09:04:28.607Z,6.75
2022-09-12T09:07:30.932Z,4.43
2022-09-12T09:10:13.325Z,5.57
2022-09-12T09:13:06.143Z,5.55
2022-09-12T09:15:56.567Z,8.35
2022-09-12T09:18:34.007Z,8.38
2022-09-12T09:21:16.360Z,8.90
2022-09-12T09:23:53.252Z,5.90
2022-09-12T09:26:43.329Z,3.40
2022-09-12T09:29:25.185Z,6.50
2022-09-12T09:31:58.843Z,4.65
2022-09-12T09:34:33.730Z,3.45
2022-09-12T09:40:48.772Z,4.10
2022-09-12T09:43:25.525Z,6.28
2022-09-12T09:45:56.092Z,4.88
2022-09-12T09:48:40.040Z,5.55
2022-09-12T09:51:11.137Z,6.13
2022-09-12T09:54:02.101Z,6.47
2022-09-12T09:56:44.555Z,3.25
2022-09-12T09:59:32.057Z,5.72
2022-09-12T10:02:06.016Z,11.00
2022-09-12T10:04:41.722Z,3.85
2022-09-12T10:07:23.487Z,8.20
2022-09-12T10:10:09.600Z,5.95
2022-09-12T10:12:39.609Z,4.93
2022-09-12T10:15:28.448Z,4.30
2022-09-12T10:18:03.221Z,6.25
2022-09-12T10:20:47.407Z,4.22
2022-09-12T10:23:43.652Z,5.88
2022-09-12T10:26:17.520Z,8.32
2022-09-12T10:28:56.249Z,2.67
2022-09-12T10:31:32.606Z,2.90
2022-09-12T10:34:04.477Z,2.67
2022-09-12T10:39:27.173Z,10.32
2022-09-12T10:42:00.747Z,3.35
2022-09-12T10:44:38.355Z,4.38
2022-09-12T10:47:38.834Z,4.13
2022-09-12T10:54:15.355Z,10.55
2022-09-12T10:57:19.170Z,16.88
2022-09-12T11:00:20.082Z,8.70
2022-09-12T11:03:18.286Z,4.03
2022-09-12T11:06:06.363Z,9.43
2022-09-12T11:08:55.084Z,6.00
2022-09-12T11:11:47.431Z,2.53
2022-09-12T11:14:41.219Z,8.80
2022-09-12T11:17:32.005Z,4.43
2022-09-12T11:20:37.490Z,8.50
2022-09-12T11:23:51.933Z,10.50
2022-09-12T11:26:34.330Z,7.85
2022-09-12T11:29:21.840Z,7.55
2022-09-12T11:32:13.532Z,9.00
2022-09-12T11:39:06.432Z,16.02
2022-09-12T11:41:42.236Z,10.35
2022-09-12T11:44:40.034Z,11.43
2022-09-12T11:47:16.551Z,10.57
2022-09-12T11:49:51.280Z,5.32
2022-09-12T11:52:26.197Z,5.97
2022-09-12T11:55:19.667Z,4.50
2022-09-12T11:58:00.154Z,4.15
2022-09-12T12:00:44.683Z,4.60
2022-09-12T12:03:34.900Z,2.75
2022-09-12T12:06:09.247Z,4.60
2022-09-12T12:08:44.327Z,10.65
2022-09-12T12:11:17.564Z,2.42
2022-09-12T12:13:59.861Z,6.85
2022-09-12T12:16:34.348Z,5.85
2022-09-12T12:19:12.123Z,4.93
2022-09-12T12:21:44.507Z,9.15
2022-09-12T12:24:30.738Z,6.65
2022-09-12T12:27:05.318Z,10.13
2022-09-12T12:29:50.380Z,8.65
2022-09-12T12:32:24.717Z,9.65
2022-09-12T12:35:05.030Z,15.05
2022-09-12T12:37:54.647Z,7.13
2022-09-12T12:40:29.067Z,10.13
2022-09-12T12:43:03.614Z,4.20
2022-09-12T12:46:01.882Z,3.55
2022-09-12T12:48:37.447Z,9.45
2022-09-12T12:51:30.274Z,15.88
2022-09-12T12:54:01.945Z,7.38
2022-09-12T12:56:41.920Z,9.18
2022-09-12T12:59:24.639Z,12.20
2022-09-12T13:01:58.326Z,21.50
2022-09-12T13:04:32.799Z,9.15
2022-09-12T13:07:08.592Z,5.45
2022-09-12T13:09:55.149Z,6.05
2022-09-12T13:12:32.494Z,8.18
2022-09-12T13:15:05.473Z,17.33
2022-09-12T13:17:43.302Z,9.07
2022-09-12T13:20:28.934Z,13.05
2022-09-12T13:23:00.957Z,37.80
2022-09-12T13:25:36.886Z,33.65
2022-09-12T13:28:21.311Z,24.08
2022-09-12T13:31:15.144Z,26.13
2022-09-12T13:33:54.674Z,20.75
2022-09-12T13:36:48.498Z,73.85
2022-09-12T13:39:41.955Z,15.07
2022-09-12T13:42:37.065Z,15.18
2022-09-12T13:45:29.012Z,18.55
2022-09-12T13:48:04.139Z,17.70
2022-09-12T13:51:01.931Z,14.40
2022-09-12T13:53:38.287Z,19.17
2022-09-12T13:56:08.791Z,13.95
2022-09-12T13:58:39.191Z,22.55
2022-09-12T14:01:17.056Z,21.48
2022-09-12T14:04:18.395Z,21.67
2022-09-12T14:06:52.947Z,21.08
2022-09-12T14:09:31.312Z,22.60
2022-09-12T14:12:02.041Z,18.65
2022-09-12T14:14:39.068Z,16.42
2022-09-12T14:17:26.162Z,17.23
2022-09-12T14:19:57.122Z,14.07
2022-09-12T14:22:28.869Z,23.73
2022-09-12T14:25:01.685Z,18.02
2022-09-12T14:27:41.547Z,29.73
2022-09-12T14:33:21.094Z,16.33
2022-09-12T14:36:09.716Z,15.73
2022-09-12T14:38:45.921Z,18.98
2022-09-12T14:41:24.244Z,16.85
2022-09-12T14:43:58.501Z,14.23
2022-09-12T14:46:41.870Z,15.65
2022-09-12T14:49:23.743Z,27.85
2022-09-12T14:52:01.436Z,30.33
2022-09-12T14:54:39.791Z,10.80
2022-09-12T14:57:24.980Z,14.13
2022-09-12T14:59:55.657Z,12.30
2022-09-12T15:02:29.733Z,9.48
2022-09-12T15:05:21.217Z,10.88
2022-09-12T15:08:02.757Z,12.57
2022-09-12T15:10:40.522Z,7.45
2022-09-12T15:13:21.123Z,7.18
2022-09-12T15:15:55.803Z,16.58
2022-09-12T15:18:29.385Z,9.80
2022-09-12T15:21:04.575Z,11.13
2022-09-12T15:23:50.907Z,12.88
2022-09-12T15:26:24.573Z,14.57
2022-09-12T15:28:55.654Z,11.25
2022-09-12T15:31:33.395Z,10.95
2022-09-12T15:34:05.977Z,11.88
2022-09-12T15:36:36.228Z,13.70
2022-09-12T15:39:06.747Z,11.45
2022-09-12T15:41:40.128Z,15.93
2022-09-12T15:44:14.764Z,12.38
2022-09-12T15:46:45.168Z,23.95
2022-09-12T15:49:15.464Z,22.95
2022-09-12T15:51:45.792Z,27.80
2022-09-12T15:54:18.231Z,12.75
2022-09-12T15:56:48.494Z,22.40
2022-09-12T15:59:19.267Z,7.80
2022-09-12T16:01:49.593Z,8.15
2022-09-12T16:04:28.248Z,4.85
2022-09-12T16:06:59.313Z,9.15
2022-09-12T16:09:29.797Z,10.13
2022-09-12T16:12:00.060Z,41.08
2022-09-12T16:14:31.011Z,11.15
2022-09-12T16:17:01.675Z,7.88
2022-09-12T16:19:32.168Z,9.38
2022-09-12T16:22:02.474Z,10.52
2022-09-12T16:24:33.454Z,11.25
2022-09-12T16:27:03.968Z,14.23
2022-09-12T16:29:34.366Z,19.42
2022-09-12T16:32:04.947Z,14.07
2022-09-12T16:34:35.381Z,17.02
2022-09-12T16:37:05.786Z,17.65
2022-09-12T16:39:36.827Z,15.75
2022-09-12T16:42:07.415Z,18.80
2022-09-12T16:44:39.893Z,16.92
2022-09-12T16:47:10.420Z,13.15
2022-09-12T16:49:47.545Z,21.92
2022-09-12T16:52:18.723Z,21.80
2022-09-12T16:54:49.108Z,22.55
2022-09-12T16:57:19.505Z,22.63
2022-09-12T16:59:49.810Z,19.67
2022-09-12T17:02:20.265Z,12.60
2022-09-12T17:04:51.231Z,17.95
2022-09-12T17:07:21.946Z,19.60
2022-09-12T17:09:52.999Z,15.90
2022-09-12T17:12:23.352Z,25.17
2022-09-12T17:14:54.486Z,22.48
2022-09-12T17:17:25.275Z,26.58
2022-09-12T17:19:55.956Z,22.95
2022-09-12T17:22:26.321Z,22.90
2022-09-12T17:24:56.765Z,25.25
2022-09-12T17:27:27.073Z,23.23
2022-09-12T17:29:57.457Z,24.40
2022-09-12T17:32:27.820Z,17.75
2022-09-12T17:34:58.198Z,12.48
2022-09-12T17:37:28.542Z,11.07
2022-09-12T17:39:59.931Z,13.27
2022-09-12T17:42:30.774Z,5.28
2022-09-12T17:45:01.374Z,9.02
2022-09-12T17:47:31.631Z,11.50
2022-09-12T17:50:27.904Z,4.30
2022-09-12T17:52:53.090Z,10.88
2022-09-12T17:55:23.525Z,11.65
2022-09-12T17:57:54.322Z,7.00
2022-09-12T18:00:44.180Z,5.45
2022-09-12T18:05:56.269Z,8.05
2022-09-12T18:08:27.598Z,2.90
2022-09-12T18:11:05.518Z,7.22
2022-09-12T18:13:37.834Z,8.23
2022-09-12T18:16:11.807Z,13.10
2022-09-12T18:18:42.366Z,5.70
2022-09-12T18:21:14.910Z,3.55
2022-09-12T18:23:45.378Z,4.03
2022-09-12T18:26:16.476Z,4.85
2022-09-12T18:28:47.905Z,8.27
2022-09-12T18:31:21.291Z,4.63
2022-09-12T18:33:52.276Z,7.68
2022-09-12T18:36:23.824Z,4.13
2022-09-12T18:38:54.477Z,4.32
2022-09-12T18:41:27.028Z,7.85
2022-09-12T18:44:02.538Z,10.77
2022-09-12T18:46:35.034Z,4.05
2022-09-12T18:49:06.658Z,5.30
2022-09-12T18:51:39.066Z,5.40
2022-09-12T18:54:14.385Z,7.97
2022-09-12T18:56:46.126Z,9.02
2022-09-12T18:59:17.009Z,16.20
2022-09-12T19:01:48.084Z,9.65
2022-09-12T19:04:18.701Z,5.38
2022-09-12T19:06:51.254Z,4.10
2022-09-12T19:09:23.139Z,7.20
2022-09-12T19:11:54.769Z,13.65
2022-09-12T19:14:28.196Z,4.28
2022-09-12T19:16:58.719Z,2.70
2022-09-12T19:19:28.996Z,4.15
2022-09-12T19:21:59.733Z,4.40
2022-09-12T19:24:30.283Z,7.47
2022-09-12T19:27:00.737Z,4.07
2022-09-12T19:29:31.207Z,3.38
2022-09-12T19:32:01.625Z,8.98
2022-09-12T19:34:31.944Z,10.98
2022-09-12T19:37:02.386Z,9.27
2022-09-12T19:39:33.446Z,6.95
2022-09-12T19:42:03.856Z,5.65
2022-09-12T19:44:34.247Z,6.00
2022-09-12T19:47:04.590Z,6.35
2022-09-12T19:49:35.059Z,5.20
2022-09-12T19:52:05.833Z,4.97
2022-09-12T19:54:36.141Z,9.57
2022-09-12T19:57:06.604Z,6.53
2022-09-12T19:59:36.880Z,4.03
2022-09-12T20:02:07.303Z,6.30
2022-09-12T20:04:38.087Z,5.65
2022-09-12T20:07:08.430Z,10.05
2022-09-12T20:09:38.814Z,5.82
2022-09-12T20:12:09.322Z,5.00
2022-09-12T20:14:40.624Z,8.00
2022-09-12T20:17:11.102Z,9.25
2022-09-12T20:19:41.448Z,9.75
2022-09-12T20:22:11.753Z,11.45
2022-09-12T20:24:42.061Z,5.40
2022-09-12T20:27:12.470Z,11.68
2022-09-12T20:29:42.808Z,8.95
2022-09-12T20:32:13.279Z,13.60
2022-09-12T20:34:43.553Z,11.18
2022-09-12T20:37:14.530Z,16.02
2022-09-12T20:39:48.985Z,12.10
2022-09-12T20:42:21.097Z,14.07
2022-09-12T20:44:51.634Z,12.82
2022-09-12T20:47:21.948Z,14.75
2022-09-12T20:49:52.305Z,16.80
2022-09-12T20:52:22.775Z,13.18
2022-09-12T20:54:53.157Z,14.27
2022-09-12T20:57:23.530Z,12.75
2022-09-12T20:59:53.808Z,17.55
2022-09-12T21:02:24.288Z,16.30
2022-09-12T21:04:54.809Z,11.85
2022-09-12T21:07:25.269Z,17.58
2022-09-12T21:09:56.327Z,21.88
2022-09-12T21:12:26.862Z,12.13
2022-09-12T21:14:58.221Z,14.32
2022-09-12T21:17:28.644Z,9.38
2022-09-12T21:19:58.914Z,14.68
2022-09-12T21:22:29.306Z,10.02
2022-09-12T21:24:59.699Z,15.95
2022-09-12T21:27:30.099Z,11.93
2022-09-12T21:30:01.456Z,19.55
2022-09-12T21:32:36.834Z,11.10
2022-09-12T21:35:07.611Z,13.10
2022-09-12T21:37:38.024Z,15.05
2022-09-12T21:40:08.956Z,7.68
2022-09-12T21:42:39.609Z,10.52
2022-09-12T21:45:11.008Z,10.15
2022-09-12T21:47:42.671Z,13.02
2022-09-12T21:50:13.618Z,10.77
2022-09-12T21:52:44.044Z,18.88
2022-09-12T21:55:15.020Z,16.15
2022-09-12T21:57:45.503Z,10.98
2022-09-12T22:00:18.756Z,10.82
2022-09-12T22:02:50.902Z,17.83
2022-09-12T22:05:23.328Z,14.60
2022-09-12T22:07:54.836Z,12.15
2022-09-12T22:10:25.069Z,13.20
2022-09-12T22:12:55.395Z,14.90
2022-09-12T22:15:42.308Z,16.02
2022-09-12T22:18:13.703Z,11.48
2022-09-12T22:20:43.910Z,11.30
2022-09-12T22:23:34.754Z,13.25
2022-09-12T22:26:05.767Z,14.07
2022-09-12T22:28:37.574Z,9.80
2022-09-12T22:31:08.625Z,10.68
2022-09-12T22:33:39.035Z,9.75
2022-09-12T22:36:10.280Z,13.05
2022-09-12T22:38:40.628Z,8.00
2022-09-12T22:41:13.613Z,16.27
2022-09-12T22:43:44.191Z,8.50
2022-09-12T22:46:15.507Z,7.78
2022-09-12T22:48:45.941Z,8.68
2022-09-12T22:51:16.184Z,5.45
2022-09-12T22:53:47.254Z,6.90
2022-09-12T22:56:17.596Z,9.00
2022-09-12T22:58:47.946Z,9.40
2022-09-12T23:01:18.405Z,5.30
2022-09-12T23:03:48.913Z,9.00
2022-09-12T23:06:19.993Z,13.02
2022-09-12T23:08:50.476Z,6.78
2022-09-12T23:11:23.498Z,11.27
2022-09-12T23:13:54.576Z,11.52
2022-09-12T23:16:27.972Z,10.63
2022-09-12T23:18:58.831Z,11.07
2022-09-12T23:21:29.518Z,8.20
2022-09-12T23:24:00.518Z,6.72
2022-09-12T23:26:31.670Z,8.90
2022-09-12T23:29:04.271Z,10.85
2022-09-12T23:31:36.283Z,13.68
2022-09-12T23:34:08.468Z,11.57
2022-09-12T23:36:38.957Z,11.88
2022-09-12T23:39:09.482Z,13.90
2022-09-12T23:41:40.309Z,15.65
2022-09-12T23:44:10.800Z,7.18
2022-09-12T23:46:41.130Z,7.35
2022-09-12T23:49:11.547Z,14.35
2022-09-12T23:51:41.777Z,12.52
2022-09-12T23:54:12.244Z,6.97
2022-09-12T23:56:42.461Z,12.93
2022-09-12T23:59:12.756Z,12.07
